Time;durP1;ratioP1;P1;durP2;ratioP2;P2;SDS_P1;SDS_P2;PMS_P1;PMS_P2;Temp;Humidity;BMP_temperature;BMP_pressure;BME280_temperature;BME280_humidity;BME280_pressure;Samples;Min_cycle;Max_cycle;Signal;HPM_P1;HPM_P2
2022/10/09 00:00:47;;;;;;;11.20;10.17;;;;;;;12.69;100.00;57344.38;5136180;27;20185;-63
2022/10/09 00:03:16;;;;;;;12.57;11.27;;;;;;;12.50;100.00;61567.56;5136228;27;20186;-62
2022/10/09 00:05:43;;;;;;;13.30;12.17;;;;;;;12.38;100.00;50149.56;5136148;27;20194;-63
2022/10/09 00:08:10;;;;;;;14.27;11.07;;;;;;;12.47;100.00;41708.16;5136330;27;20187;-62
2022/10/09 00:10:42;;;;;;;19.10;10.87;;;;;;;12.51;100.00;43659.09;5117669;27;20203;-63
2022/10/09 00:13:09;;;;;;;13.20;12.03;;;;;;;12.44;100.00;46252.47;5135878;27;20247;-62
2022/10/09 00:15:39;;;;;;;12.93;11.80;;;;;;;12.40;100.00;45599.38;5135873;27;20193;-63
2022/10/09 00:18:06;;;;;;;12.73;11.50;;;;;;;12.32;100.00;46243.53;5136259;27;20183;-63
2022/10/09 00:20:36;;;;;;;12.47;11.13;;;;;;;12.40;100.00;45599.38;5135812;27;20249;-63
2022/10/09 00:23:04;;;;;;;13.33;12.07;;;;;;;12.36;100.00;45272.13;5136053;27;20723;-63
2022/10/09 00:25:31;;;;;;;19.10;13.67;;;;;;;12.46;100.00;50806.88;5135776;27;20183;-63
2022/10/09 00:27:59;;;;;;;19.13;13.83;;;;;;;12.46;100.00;53737.41;5135820;27;20186;-63
2022/10/09 00:30:26;;;;;;;20.33;16.00;;;;;;;12.49;100.00;59934.03;5135857;27;20645;-63
2022/10/09 00:32:53;;;;;;;20.23;16.07;;;;;;;12.19;100.00;65125.91;5135951;27;20587;-63
2022/10/09 00:35:21;;;;;;;33.00;20.67;;;;;;;12.30;100.00;64158.84;5135478;27;20194;-62
2022/10/09 00:37:48;;;;;;;16.00;14.43;;;;;;;12.26;100.00;58932.28;5135631;27;20740;-63
2022/10/09 00:40:15;;;;;;;19.00;15.83;;;;;;;12.03;100.00;47844.22;5136027;27;20179;-62
2022/10/09 00:42:44;;;;;;;20.60;16.40;;;;;;;12.00;100.00;46542.38;5134767;27;20182;-63
2022/10/09 00:45:19;;;;;;;21.80;17.80;;;;;;;11.99;100.00;47840.88;5135577;27;20182;-62
2022/10/09 00:47:50;;;;;;;20.40;17.83;;;;;;;12.08;100.00;49473.50;5135424;27;20270;-62
2022/10/09 00:50:20;;;;;;;22.43;17.63;;;;;;;12.08;100.00;47198.59;5135203;27;20197;-63
2022/10/09 00:52:49;;;;;;;20.43;15.60;;;;;;;11.99;100.00;43944.06;5135502;27;20652;-62
2022/10/09 00:55:17;;;;;;;19.07;15.30;;;;;;;11.87;100.00;41989.41;5135632;27;20745;-63
2022/10/09 00:57:44;;;;;;;18.33;16.63;;;;;;;11.98;100.00;42321.13;5135075;27;20193;-63
2022/10/09 01:00:15;;;;;;;21.97;17.87;;;;;;;12.00;100.00;42647.38;5135038;27;20205;-62
2022/10/09 01:02:41;;;;;;;23.60;17.63;;;;;;;11.99;100.00;45891.69;5135248;27;20269;-63
2022/10/09 01:05:10;;;;;;;21.70;17.07;;;;;;;11.88;100.00;48156.53;5134940;27;20186;-62
2022/10/09 01:07:46;;;;;;;30.13;18.67;;;;;;;11.93;100.00;58899.13;5135152;27;20510;-62
2022/10/09 01:10:24;;;;;;;22.93;18.27;;;;;;;11.89;100.00;64766.31;5135113;27;20197;-62
2022/10/09 01:12:59;;;;;;;24.37;17.10;;;;;;;11.69;100.00;51714.78;5134619;27;20298;-62
2022/10/09 01:15:33;;;;;;;16.70;14.50;;;;;;;11.81;100.00;52051.25;5134784;27;20197;-63
2022/10/09 01:18:07;;;;;;;14.80;13.30;;;;;;;11.87;100.00;52707.22;5134922;27;20186;-62
2022/10/09 01:20:49;;;;;;;15.57;14.03;;;;;;;11.83;100.00;60519.19;5134616;27;20236;-62
2022/10/09 01:23:41;;;;;;;17.70;13.03;;;;;;;11.94;100.00;66731.41;5134916;27;20194;-62
2022/10/09 01:26:29;;;;;;;13.67;12.33;;;;;;;11.88;100.00;76865.56;5134570;27;20187;-62
2022/10/09 01:29:01;;;;;;;13.83;12.03;;;;;;;11.92;100.00;78180.97;5134594;27;20278;-63
2022/10/09 01:31:32;;;;;;;14.00;12.40;;;;;;;11.88;100.00;75882.84;5134382;27;20206;-63
2022/10/09 01:34:01;;;;;;;13.53;11.63;;;;;;;11.79;100.00;71289.59;5134457;27;20198;-62
2022/10/09 01:36:29;;;;;;;11.07;10.30;;;;;;;12.03;100.00;74592.22;5134336;27;20187;-62
2022/10/09 01:38:58;;;;;;;11.60;10.60;;;;;;;12.03;100.00;80819.94;5134258;27;20187;-63
2022/10/09 01:41:26;;;;;;;11.97;11.07;;;;;;;11.93;100.00;82774.03;5134317;27;20241;-62
2022/10/09 01:43:53;;;;;;;12.80;11.70;;;;;;;12.01;100.00;82129.66;5134320;27;20187;-63
2022/10/09 01:46:24;;;;;;;17.43;12.93;;;;;;;12.04;100.00;80493.25;5134446;27;20562;-63
2022/10/09 01:49:01;;;;;;;17.57;14.07;;;;;;;12.00;100.00;75897.81;5134038;27;20189;-62
2022/10/09 01:51:36;;;;;;;16.13;14.10;;;;;;;12.01;100.00;74262.19;5134311;27;20210;-63
2022/10/09 01:54:06;;;;;;;16.40;14.77;;;;;;;11.92;100.00;68689.09;5133701;27;20192;-63
2022/10/09 01:56:37;;;;;;;16.33;13.20;;;;;;;11.95;100.00;70000.38;5133526;27;20215;-62
2022/10/09 01:59:08;;;;;;;17.00;13.77;;;;;;;11.86;100.00;69336.91;5134273;27;20526;-62
2022/10/09 02:01:38;;;;;;;13.23;11.97;;;;;;;11.92;100.00;68036.03;5134287;27;20197;-62
2022/10/09 02:04:10;;;;;;;13.30;12.30;;;;;;;11.82;100.00;77185.25;5133781;27;20187;-62
2022/10/09 02:06:40;;;;;;;14.23;12.87;;;;;;;11.64;100.00;67023.44;5133727;27;20183;-63
2022/10/09 02:09:11;;;;;;;12.73;11.53;;;;;;;11.55;100.00;60489.88;5133982;27;20718;-63
2022/10/09 02:11:41;;;;;;;14.43;11.83;;;;;;;11.68;100.00;58874.13;5133894;27;20297;-62
2022/10/09 02:14:08;;;;;;;18.13;12.17;;;;;;;11.62;100.00;61800.56;5133552;27;20191;-62
2022/10/09 02:16:39;;;;;;;13.57;12.20;;;;;;;11.81;100.00;64757.38;5133528;27;20183;-63
2022/10/09 02:19:11;;;;;;;10.53;9.63;;;;;;;11.82;100.00;80790.88;5133774;27;20530;-62
2022/10/09 02:21:43;;;;;;;10.67;9.67;;;;;;;11.95;100.00;84747.47;5133301;27;20755;-63
2022/10/09 02:24:15;;;;;;;12.93;10.70;;;;;;;12.03;100.00;104852.53;5133342;27;20254;-62
2022/10/09 02:26:42;;;;;;;13.67;10.00;;;;;;;12.11;100.00;121757.91;5133682;27;20542;-63
2022/10/09 02:29:10;;;;;;;10.57;9.63;;;;;;;12.15;100.00;130408.13;5133324;27;20191;-63
2022/10/09 02:31:41;;;;;;;13.50;12.30;;;;;;;12.18;100.00;149101.84;5133586;27;20207;-63
2022/10/09 02:34:10;;;;;;;17.63;15.47;;;;;;;12.22;100.00;149111.97;5133276;27;20186;-62
2022/10/09 02:36:38;;;;;;;21.97;17.20;;;;;;;12.20;100.00;149105.66;5133166;27;20222;-63
2022/10/09 02:39:05;;;;;;;20.33;17.23;;;;;;;12.20;100.00;149106.94;5133510;27;20661;-63
2022/10/09 02:41:33;;;;;;;22.70;14.53;;;;;;;12.05;100.00;149068.94;5133057;27;20183;-63
2022/10/09 02:44:00;;;;;;;17.93;15.20;;;;;;;12.07;100.00;149072.75;5133039;27;20189;-62
2022/10/09 02:46:27;;;;;;;20.07;16.77;;;;;;;12.00;100.00;148596.41;5132981;27;20183;-63
2022/10/09 02:48:55;;;;;;;21.33;19.13;;;;;;;11.89;100.00;149028.44;5133270;27;20191;-62
2022/10/09 02:51:22;;;;;;;23.63;19.90;;;;;;;12.04;100.00;149066.44;5132890;27;20187;-62
2022/10/09 02:53:51;;;;;;;25.40;19.90;;;;;;;12.06;100.00;149070.22;5132817;27;20197;-63
2022/10/09 02:56:18;;;;;;;34.43;24.03;;;;;;;12.03;100.00;149063.91;5133178;27;20191;-62
2022/10/09 02:58:45;;;;;;;46.10;31.07;;;;;;;11.88;100.00;149025.97;5132878;27;20193;-62
2022/10/09 03:01:12;;;;;;;63.60;34.70;;;;;;;11.73;100.00;148987.97;5132768;27;20183;-62
2022/10/09 03:03:39;;;;;;;60.33;34.53;;;;;;;11.59;100.00;148953.75;5133065;27;20205;-62
2022/10/09 03:06:10;;;;;;;59.23;33.97;;;;;;;11.55;100.00;148942.38;5132497;27;20262;-62
2022/10/09 03:08:38;;;;;;;66.20;33.43;;;;;;;11.46;100.00;148851.63;5132748;27;20187;-62
2022/10/09 03:11:05;;;;;;;58.50;34.40;;;;;;;11.43;100.00;146437.78;5132885;27;20603;-62
2022/10/09 03:13:32;;;;;;;60.03;34.63;;;;;;;11.55;100.00;141760.75;5132461;27;20211;-63
2022/10/09 03:16:03;;;;;;;55.10;33.90;;;;;;;11.55;100.00;143717.03;5132813;27;20629;-62
2022/10/09 03:18:30;;;;;;;52.70;32.17;;;;;;;11.56;100.00;141733.09;5132907;27;20186;-62
2022/10/09 03:20:57;;;;;;;58.97;34.67;;;;;;;11.62;100.00;137865.06;5132483;28;20226;-62
2022/10/09 03:23:26;;;;;;;47.97;31.20;;;;;;;11.47;100.00;147380.66;5132589;28;20194;-61
2022/10/09 03:25:57;;;;;;;38.40;24.70;;;;;;;11.42;100.00;148912.00;5132572;28;20186;-63
2022/10/09 03:28:25;;;;;;;28.07;20.30;;;;;;;11.40;100.00;148905.72;5132815;28;20206;-62
2022/10/09 03:30:52;;;;;;;31.53;20.57;;;;;;;11.49;100.00;148927.22;5132764;28;20214;-63
2022/10/09 03:33:19;;;;;;;23.77;19.00;;;;;;;11.52;100.00;148934.78;5114209;28;20210;-63
2022/10/09 03:35:46;;;;;;;33.10;18.50;;;;;;;11.53;100.00;148938.59;5132553;28;20190;-62
2022/10/09 03:38:14;;;;;;;28.90;18.47;;;;;;;11.52;100.00;148934.78;5132372;28;20281;-62
2022/10/09 03:40:42;;;;;;;28.57;17.17;;;;;;;11.58;100.00;130282.97;5132666;28;20187;-62
2022/10/09 03:43:09;;;;;;;31.53;20.13;;;;;;;11.41;100.00;110689.00;5132426;28;20187;-62
2022/10/09 03:45:39;;;;;;;26.23;20.93;;;;;;;11.46;100.00;99475.81;5132401;28;20189;-62
2022/10/09 03:48:06;;;;;;;34.43;21.90;;;;;;;11.32;100.00;94842.59;5132283;28;20239;-62
2022/10/09 03:50:33;;;;;;;36.87;21.50;;;;;;;11.43;100.00;91570.25;5132356;28;20277;-63
2022/10/09 03:53:00;;;;;;;34.20;20.73;;;;;;;11.53;100.00;92900.69;5132426;28;20306;-63
2022/10/09 03:55:27;;;;;;;21.27;18.03;;;;;;;11.57;100.00;98504.97;5132679;28;20557;-62
2022/10/09 03:57:55;;;;;;;27.07;20.10;;;;;;;11.34;100.00;82364.03;5132236;28;20222;-62
2022/10/09 04:00:23;;;;;;;28.87;20.17;;;;;;;11.43;100.00;76480.19;5114016;28;20189;-62
2022/10/09 04:02:50;;;;;;;24.13;19.50;;;;;;;11.51;100.00;73871.31;5132152;28;20183;-63
2022/10/09 04:05:17;;;;;;;24.10;18.30;;;;;;;11.37;100.00;72873.78;5132465;28;20186;-63
2022/10/09 04:07:44;;;;;;;24.80;18.27;;;;;;;11.41;100.00;74841.28;5132381;28;20286;-62
2022/10/09 04:10:11;;;;;;;26.23;19.10;;;;;;;11.45;100.00;75828.19;5132067;28;20214;-62
2022/10/09 04:12:39;;;;;;;20.67;18.40;;;;;;;11.15;100.00;69579.34;5132409;28;20592;-62
2022/10/09 04:15:09;;;;;;;20.83;17.67;;;;;;;11.35;100.00;74506.47;5132381;28;20182;-63
2022/10/09 04:17:36;;;;;;;26.73;18.37;;;;;;;11.15;100.00;72846.25;5132150;27;20187;-62
2022/10/09 04:20:04;;;;;;;24.57;18.53;;;;;;;11.33;100.00;78430.72;5135843;27;20237;-62
2022/10/09 04:22:31;;;;;;;30.80;18.50;;;;;;;11.29;100.00;83997.22;5135802;27;20248;-62
2022/10/09 04:24:57;;;;;;;28.93;18.20;;;;;;;11.15;100.00;79716.25;5136031;27;20190;-62
2022/10/09 04:27:24;;;;;;;26.90;17.50;;;;;;;11.11;100.00;74802.13;5136026;27;20194;-62
2022/10/09 04:29:51;;;;;;;19.40;16.33;;;;;;;10.83;100.00;70847.31;5135663;27;20189;-63
2022/10/09 04:32:20;;;;;;;25.50;17.97;;;;;;;10.74;100.00;65290.78;5135907;27;20665;-62
2022/10/09 04:34:47;;;;;;;23.50;18.80;;;;;;;10.92;100.00;66941.50;5117638;27;20198;-62
2022/10/09 04:37:13;;;;;;;19.97;17.87;;;;;;;11.04;100.00;68586.88;5135469;27;20187;-62
2022/10/09 04:39:40;;;;;;;22.83;17.97;;;;;;;11.09;100.00;71857.81;5135871;27;20189;-62
2022/10/09 04:42:08;;;;;;;27.23;17.43;;;;;;;11.16;100.00;77753.78;5135511;27;20182;-62
2022/10/09 04:44:34;;;;;;;27.90;20.77;;;;;;;11.28;100.00;89575.97;5135474;27;20568;-63
2022/10/09 04:47:01;;;;;;;28.87;19.97;;;;;;;11.32;100.00;113648.09;5135597;27;20645;-62
2022/10/09 04:49:29;;;;;;;21.63;19.17;;;;;;;11.54;100.00;135794.22;5135384;27;20569;-62
2022/10/09 04:51:57;;;;;;;26.23;18.77;;;;;;;11.85;100.00;129677.53;5135206;27;20183;-63
2022/10/09 04:54:24;;;;;;;25.93;19.23;;;;;;;12.13;100.00;138409.34;5135579;27;20266;-63
2022/10/09 04:56:51;;;;;;;38.13;18.90;;;;;;;12.36;100.00;149146.16;5135428;27;20580;-63
2022/10/09 04:59:18;;;;;;;27.83;18.20;;;;;;;12.59;100.00;149203.16;5135219;27;20187;-63
2022/10/09 05:01:44;;;;;;;32.00;19.33;;;;;;;13.04;100.00;149315.81;5135129;27;20187;-63
2022/10/09 05:04:11;;;;;;;28.50;17.37;;;;;;;13.49;100.00;149429.91;5135014;27;20278;-63
2022/10/09 05:06:40;;;;;;;32.40;17.07;;;;;;;14.06;100.00;149573.09;5134948;27;20183;-64
2022/10/09 05:09:06;;;;;;;31.53;15.90;;;;;;;14.50;100.00;149682.16;5135344;27;20557;-64
2022/10/09 05:11:33;;;;;;;24.73;16.07;;;;;;;15.08;100.00;149828.00;5134900;27;20187;-64
2022/10/09 05:14:00;;;;;;;23.10;16.83;;;;;;;15.50;100.00;149934.63;5134671;27;20210;-63
2022/10/09 05:16:30;;;;;;;22.77;17.03;;;;;;;15.49;100.00;149932.00;5134886;27;20189;-63
2022/10/09 05:18:59;;;;;;;23.40;16.57;;;;;;;15.63;100.00;149966.34;5134760;27;20197;-62
2022/10/09 05:21:27;;;;;;;22.67;17.37;;;;;;;15.83;100.00;150015.81;5134537;27;20261;-63
2022/10/09 05:23:56;;;;;;;27.03;20.23;;;;;;;15.71;100.00;149986.63;5135077;27;20186;-64
2022/10/09 05:26:24;;;;;;;39.00;25.67;;;;;;;15.92;100.00;150038.66;5135036;27;20548;-64
2022/10/09 05:28:51;;;;;;;40.23;27.03;;;;;;;16.11;100.00;150085.66;5134818;27;20533;-63
2022/10/09 05:31:20;;;;;;;41.10;28.67;;;;;;;16.07;100.00;150075.50;5134649;27;20183;-63
2022/10/09 05:33:47;;;;;;;40.27;28.53;;;;;;;16.23;100.00;150117.41;5134535;27;20233;-64
2022/10/09 05:36:15;;;;;;;39.47;26.27;;;;;;;16.20;100.00;150108.50;5134568;27;20183;-63
2022/10/09 05:38:42;;;;;;;37.43;26.47;;;;;;;16.40;100.00;150159.28;5134934;27;20274;-64
2022/10/09 05:41:13;;;;;;;34.93;26.43;;;;;;;16.36;100.00;150149.13;5134805;27;20256;-64
2022/10/09 05:43:41;;;;;;;31.60;23.40;;;;;;;16.56;100.00;150199.91;5134769;27;20187;-64
2022/10/09 05:46:10;;;;;;;30.17;21.50;;;;;;;16.92;100.00;150288.88;5135103;27;20179;-64
2022/10/09 05:48:38;;;;;;;28.73;18.90;;;;;;;17.31;100.00;150388.00;5134575;27;20191;-65
2022/10/09 05:51:12;;;;;;;20.97;17.37;;;;;;;17.81;100.00;150513.84;5134449;27;20277;-64
2022/10/09 05:53:40;;;;;;;23.87;16.23;;;;;;;18.52;100.00;150693.16;5134564;27;20202;-65
2022/10/09 05:56:13;;;;;;;24.60;17.33;;;;;;;19.15;100.00;150850.88;5134562;27;20646;-65
2022/10/09 05:58:41;;;;;;;17.37;15.63;;;;;;;19.70;100.00;150989.63;5115782;27;20182;-65
2022/10/09 06:01:08;;;;;;;18.07;15.27;;;;;;;20.24;100.00;151125.81;5134065;27;20189;-65
2022/10/09 06:03:35;;;;;;;17.20;15.17;;;;;;;20.32;100.00;151146.31;5133978;27;20183;-64
2022/10/09 06:06:04;;;;;;;26.47;15.00;;;;;;;20.16;100.00;151104.19;5134410;27;20193;-66
2022/10/09 06:08:32;;;;;;;23.33;15.83;;;;;;;20.21;100.00;151118.22;5134267;27;20610;-65
2022/10/09 06:11:07;;;;;;;17.67;15.63;;;;;;;20.61;100.00;151218.88;5134213;27;20243;-65
2022/10/09 06:13:36;;;;;;;17.63;15.87;;;;;;;20.93;99.77;151299.09;5134128;27;20202;-65
2022/10/09 06:16:02;;;;;;;22.27;15.77;;;;;;;21.21;96.59;151370.53;5133643;27;20189;-66
2022/10/09 06:18:29;;;;;;;17.92;16.25;;;;;;;21.29;96.14;151389.63;5134056;27;20528;-64
2022/10/09 06:20:58;;;;;;;18.80;17.02;;;;;;;21.48;95.59;151436.75;5134295;27;20236;-65
2022/10/09 06:23:25;;;;;;;18.60;16.58;;;;;;;21.74;91.16;151503.03;5133715;27;20189;-65
2022/10/09 06:25:53;;;;;;;18.80;16.20;;;;;;;21.73;90.27;151501.75;5134027;27;20198;-65
2022/10/09 06:28:22;;;;;;;18.05;16.25;;;;;;;22.10;87.62;151594.91;5133826;27;20646;-66
2022/10/09 06:30:51;;;;;;;24.92;15.45;;;;;;;22.27;85.75;151638.25;5133825;27;20193;-65
2022/10/09 06:33:18;;;;;;;17.40;15.30;;;;;;;22.50;84.64;151695.59;5133884;27;20209;-66
2022/10/09 06:35:45;;;;;;;17.52;15.75;;;;;;;22.63;82.96;151727.50;5133913;27;20256;-65
2022/10/09 06:38:11;;;;;;;14.68;13.45;;;;;;;22.84;81.00;151779.81;5133317;27;20182;-65
2022/10/09 06:40:38;;;;;;;16.05;13.27;;;;;;;22.91;80.43;151799.00;5133638;27;20183;-65
2022/10/09 06:43:06;;;;;;;16.80;13.48;;;;;;;22.81;79.56;151773.47;5134142;27;20194;-65
2022/10/09 06:45:37;;;;;;;16.20;14.57;;;;;;;22.80;80.77;151769.63;5133638;27;20246;-65
2022/10/09 06:48:06;;;;;;;19.42;17.83;;;;;;;23.29;81.18;151893.41;5133276;27;20183;-65
2022/10/09 06:50:36;;;;;;;23.80;21.23;;;;;;;23.37;79.40;151913.81;5133984;27;20187;-66
2022/10/09 06:53:04;;;;;;;22.30;19.15;;;;;;;23.55;78.58;151961.03;5133523;27;20207;-65
2022/10/09 06:55:31;;;;;;;20.95;18.85;;;;;;;23.70;77.26;151998.09;5133285;27;20189;-67
2022/10/09 06:57:58;;;;;;;20.10;18.10;;;;;;;23.86;77.13;152038.91;5134064;27;20183;-67
2022/10/09 07:00:25;;;;;;;16.98;15.68;;;;;;;24.05;73.28;152087.44;5133396;27;20178;-66
2022/10/09 07:02:52;;;;;;;16.00;14.48;;;;;;;24.33;71.26;152156.41;5115126;27;20185;-66
2022/10/09 07:05:20;;;;;;;17.67;15.82;;;;;;;24.69;70.20;152248.38;5134029;27;20183;-66
2022/10/09 07:07:48;;;;;;;25.83;23.00;;;;;;;24.79;71.37;152273.91;5133719;27;20182;-66
2022/10/09 07:10:14;;;;;;;39.80;29.38;;;;;;;24.98;69.72;152321.22;5133694;27;20556;-65
2022/10/09 07:12:41;;;;;;;26.95;24.15;;;;;;;25.28;67.22;152397.91;5133640;27;20186;-65
2022/10/09 07:15:09;;;;;;;21.42;19.33;;;;;;;25.53;65.73;152459.22;5133353;27;20194;-66
2022/10/09 07:17:36;;;;;;;26.77;19.67;;;;;;;25.87;63.72;152547.44;5133441;27;20178;-65
2022/10/09 07:20:03;;;;;;;23.23;18.83;;;;;;;25.84;62.02;152539.75;5133417;27;20702;-66
2022/10/09 07:22:32;;;;;;;22.35;18.85;;;;;;;26.12;61.10;152608.78;5133479;27;20548;-66
2022/10/09 07:24:59;;;;;;;21.80;19.75;;;;;;;26.23;60.38;152636.94;5133570;28;20197;-65
2022/10/09 07:27:26;;;;;;;25.27;19.67;;;;;;;26.26;59.71;152644.66;5133870;28;20214;-66
2022/10/09 07:29:53;;;;;;;22.92;20.17;;;;;;;26.44;58.98;152690.66;5132934;28;20222;-66
2022/10/09 07:32:20;;;;;;;23.20;20.63;;;;;;;26.35;58.43;152667.69;5133201;28;20262;-65
2022/10/09 07:34:47;;;;;;;18.60;16.80;;;;;;;26.40;58.69;152679.13;5132821;28;20206;-66
2022/10/09 07:37:14;;;;;;;19.80;15.48;;;;;;;27.07;57.28;152849.31;5132734;28;20183;-66
2022/10/09 07:39:42;;;;;;;14.90;13.75;;;;;;;27.27;55.74;152901.75;5132840;28;20191;-66
2022/10/09 07:42:09;;;;;;;15.95;13.73;;;;;;;27.93;54.28;153068.13;5132796;28;20277;-67
2022/10/09 07:44:36;;;;;;;19.88;14.98;;;;;;;28.63;51.60;153244.84;5114383;28;20183;-67
2022/10/09 07:47:03;;;;;;;21.40;18.98;;;;;;;28.58;49.42;153233.31;5132550;28;20194;-66
2022/10/09 07:49:30;;;;;;;21.20;17.48;;;;;;;28.98;49.00;153333.25;5132634;28;20183;-67
2022/10/09 07:51:57;;;;;;;12.63;10.00;;;;;;;28.92;47.56;153319.16;5132997;27;20513;-66
2022/10/09 07:54:24;;;;;;;3.70;3.40;;;;;;;29.41;46.78;153443.44;5136212;27;20202;-67
2022/10/09 07:56:53;;;;;;;2.90;2.60;;;;;;;30.00;43.61;153590.84;5118500;27;20193;-67
2022/10/09 07:59:19;;;;;;;2.80;2.60;;;;;;;30.46;43.31;153707.50;5138150;27;20210;-66
2022/10/09 08:01:46;;;;;;;2.90;2.33;;;;;;;31.34;40.60;153931.94;5137709;27;20189;-66
2022/10/09 08:04:13;;;;;;;2.58;2.35;;;;;;;31.61;39.60;154001.25;5118669;27;20201;-67
2022/10/09 08:06:40;;;;;;;4.70;3.22;;;;;;;31.79;39.56;154046.13;5137188;27;20530;-66
2022/10/09 08:09:08;;;;;;;2.90;2.45;;;;;;;32.23;38.06;154156.50;5137043;27;20560;-66
2022/10/09 08:11:39;;;;;;;2.33;2.22;;;;;;;32.59;38.02;154248.94;5137042;27;20625;-67
2022/10/09 08:14:08;;;;;;;5.18;2.25;;;;;;;32.83;36.20;154310.56;5136845;27;20205;-66
2022/10/09 08:16:35;;;;;;;2.33;1.80;;;;;;;33.38;35.56;154449.25;5136863;27;20698;-66
2022/10/09 08:19:02;;;;;;;2.65;2.55;;;;;;;33.49;35.35;154478.78;5137086;27;20659;-67
2022/10/09 08:21:31;;;;;;;2.45;2.13;;;;;;;33.26;36.13;154419.75;5136315;27;20241;-66
2022/10/09 08:23:59;;;;;;;4.53;2.15;;;;;;;32.93;36.91;154336.22;5136198;27;20538;-66
2022/10/09 08:26:27;;;;;;;4.72;2.65;;;;;;;33.14;36.27;154388.94;5136421;27;20183;-66
2022/10/09 08:28:56;;;;;;;2.90;2.67;;;;;;;33.43;35.83;154462.13;5136376;27;20591;-66
2022/10/09 08:31:25;;;;;;;2.53;2.22;;;;;;;33.61;35.17;154508.31;5136795;27;20649;-67
2022/10/09 08:33:53;;;;;;;2.92;2.60;;;;;;;34.06;33.96;154621.41;5136237;27;20204;-65
2022/10/09 08:36:20;;;;;;;2.08;1.98;;;;;;;34.01;34.65;154608.53;5136638;27;20615;-66
2022/10/09 08:38:48;;;;;;;3.35;2.50;;;;;;;34.18;34.24;154653.56;5136514;27;20253;-65
2022/10/09 08:41:38;;;;;;;2.70;2.55;;;;;;;34.61;33.21;154762.75;5136230;27;20195;-66
2022/10/09 08:44:11;;;;;;;3.15;2.90;;;;;;;34.60;33.60;154758.91;5136249;27;20209;-67
2022/10/09 08:46:50;;;;;;;2.40;2.30;;;;;;;34.41;34.53;154711.38;5135923;27;20242;-66
2022/10/09 08:49:24;;;;;;;2.70;2.60;;;;;;;34.98;33.52;154855.31;5136457;27;20194;-66
2022/10/09 08:51:53;;;;;;;2.70;2.50;;;;;;;34.79;32.40;154809.09;5136392;27;20190;-66
2022/10/09 08:54:30;;;;;;;3.50;2.70;;;;;;;34.53;33.80;154742.22;5118103;27;20669;-65
2022/10/09 08:57:00;;;;;;;2.70;2.60;;;;;;;34.78;33.46;154806.50;5135856;27;20182;-66
2022/10/09 08:59:27;;;;;;;3.28;3.08;;;;;;;34.66;33.89;154774.38;5135641;27;20215;-66
2022/10/09 09:02:03;;;;;;;2.80;2.60;;;;;;;34.57;34.67;154751.19;5135765;27;20641;-67
2022/10/09 09:05:01;;;;;;;3.08;2.97;;;;;;;34.75;35.26;154798.81;5135525;27;20174;-66
2022/10/09 09:07:34;;;;;;;2.85;2.65;;;;;;;35.22;33.73;154917.09;5123353;27;20209;-66
2022/10/09 09:10:11;;;;;;;8.98;2.83;;;;;;;36.04;32.87;155126.66;5135655;27;20187;-67
2022/10/09 09:12:47;;;;;;;3.13;2.80;;;;;;;36.23;32.96;155174.31;5136064;27;20261;-67
2022/10/09 09:15:25;;;;;;;3.00;2.83;;;;;;;35.99;33.04;155112.50;5135666;27;20210;-66
2022/10/09 09:18:06;;;;;;;2.75;2.53;;;;;;;35.75;33.82;155052.09;5135668;27;20209;-66
2022/10/09 09:20:42;;;;;;;3.03;2.80;;;;;;;36.52;33.25;155248.88;5135181;27;20341;-66
2022/10/09 09:23:15;;;;;;;3.60;2.85;;;;;;;37.37;32.10;155463.81;5135923;27;20200;-68
2022/10/09 09:25:44;;;;;;;3.45;3.25;;;;;;;37.05;31.95;155382.72;5135199;27;20187;-67
2022/10/09 09:28:18;;;;;;;3.20;3.00;;;;;;;36.95;32.12;155358.28;5134912;27;20193;-66
2022/10/09 09:30:50;;;;;;;3.00;2.80;;;;;;;36.20;32.88;155166.56;5134938;27;20190;-65
2022/10/09 09:33:24;;;;;;;3.35;3.17;;;;;;;35.36;33.45;154951.75;5134903;27;20251;-67
2022/10/09 09:36:03;;;;;;;2.88;2.78;;;;;;;36.05;33.13;155129.22;5135148;27;20231;-67
2022/10/09 09:38:30;;;;;;;3.22;3.10;;;;;;;35.81;33.59;155067.53;5134764;27;20189;-66
2022/10/09 09:40:57;;;;;;;4.63;3.10;;;;;;;36.23;33.67;155173.00;5116397;27;20187;-66
2022/10/09 09:43:26;;;;;;;3.20;3.10;;;;;;;36.39;32.52;155215.44;5134941;27;20193;-66
2022/10/09 09:45:54;;;;;;;2.88;2.70;;;;;;;36.79;32.37;155317.13;5134444;27;20226;-66
2022/10/09 09:48:32;;;;;;;3.10;2.90;;;;;;;36.38;33.01;155212.88;5134869;27;20228;-67
2022/10/09 09:51:00;;;;;;;3.20;3.00;;;;;;;36.10;33.90;155142.09;5134811;27;20193;-66
2022/10/09 09:53:30;;;;;;;2.90;2.80;;;;;;;35.99;34.18;155112.50;5134358;27;20183;-66
2022/10/09 09:55:58;;;;;;;3.88;3.58;;;;;;;36.38;32.92;155211.56;5134573;27;20183;-66
2022/10/09 09:58:32;;;;;;;3.40;3.30;;;;;;;36.17;33.40;155158.84;5135208;27;20258;-65
2022/10/09 10:01:02;;;;;;;3.97;3.60;;;;;;;35.05;34.65;154873.34;5134651;27;20178;-66
2022/10/09 10:03:31;;;;;;;4.70;4.28;;;;;;;34.80;34.84;154811.63;5134575;27;20179;-66
2022/10/09 10:05:58;;;;;;;4.28;4.07;;;;;;;34.86;36.55;154825.78;5133971;27;20178;-66
2022/10/09 10:08:27;;;;;;;3.92;3.72;;;;;;;35.66;34.77;155030.22;5134315;27;20183;-66
2022/10/09 10:10:56;;;;;;;5.65;3.33;;;;;;;36.00;34.56;155115.06;5134315;27;20645;-66
2022/10/09 10:13:32;;;;;;;4.10;3.80;;;;;;;36.35;33.22;155203.88;5134321;27;20190;-66
2022/10/09 10:16:00;;;;;;;5.57;3.50;;;;;;;35.82;34.23;155068.81;5133007;27;20183;-66
2022/10/09 10:18:31;;;;;;;4.03;3.78;;;;;;;35.54;34.32;154998.03;5133719;27;20186;-66
2022/10/09 10:21:04;;;;;;;3.92;3.83;;;;;;;35.70;34.40;155039.22;5133806;27;20230;-65
2022/10/09 10:23:37;;;;;;;3.65;3.38;;;;;;;36.03;33.63;155124.06;5133689;27;20277;-67
2022/10/09 10:26:09;;;;;;;4.40;4.10;;;;;;;36.01;33.61;155117.66;5133705;27;20186;-65
2022/10/09 10:28:45;;;;;;;5.03;4.55;;;;;;;35.23;34.34;154920.91;5134252;27;20626;-66
2022/10/09 10:31:19;;;;;;;4.32;3.97;;;;;;;35.72;33.84;155045.69;5133687;27;20225;-66
2022/10/09 10:33:54;;;;;;;4.70;4.50;;;;;;;34.23;36.41;154665.13;5133746;27;20186;-66
2022/10/09 10:36:25;;;;;;;11.48;4.00;;;;;;;34.50;36.27;154734.47;5116503;27;20655;-66
2022/10/09 10:38:58;;;;;;;4.10;3.90;;;;;;;34.79;36.08;154809.09;5133784;27;20606;-65
2022/10/09 10:41:33;;;;;;;3.65;3.25;;;;;;;35.13;34.72;154893.91;5133880;27;20194;-65
2022/10/09 10:44:07;;;;;;;3.50;3.40;;;;;;;34.68;34.57;154780.78;5133674;27;20326;-66
2022/10/09 10:46:39;;;;;;;3.60;3.40;;;;;;;35.49;34.76;154986.47;5133691;27;20275;-66
2022/10/09 10:49:11;;;;;;;3.65;3.45;;;;;;;35.35;34.35;154949.22;5133612;27;20599;-65
2022/10/09 10:51:56;;;;;;;4.65;4.40;;;;;;;35.11;35.01;154890.03;5133424;27;20179;-65
2022/10/09 10:54:33;;;;;;;5.43;4.30;;;;;;;34.74;35.81;154796.22;5114888;27;20182;-64
2022/10/09 10:57:21;;;;;;;3.85;3.65;;;;;;;36.71;34.50;155295.25;5133238;27;20183;-64
2022/10/09 10:59:59;;;;;;;7.63;3.72;;;;;;;37.54;31.65;155506.31;5133500;27;20186;-65
2022/10/09 11:02:54;;;;;;;4.03;3.80;;;;;;;37.66;32.47;155537.22;5133443;27;20186;-66
2022/10/09 11:05:36;;;;;;;4.47;4.05;;;;;;;35.14;34.47;154896.44;5133403;27;20550;-66
2022/10/09 11:08:17;;;;;;;4.68;3.50;;;;;;;33.93;35.61;154590.56;5133031;27;20259;-65
2022/10/09 11:10:55;;;;;;;4.90;4.50;;;;;;;32.59;38.20;154248.94;5133109;27;20183;-65
2022/10/09 11:13:28;;;;;;;4.55;4.25;;;;;;;31.25;41.34;153910.13;5115124;27;20552;-65
2022/10/09 11:16:06;;;;;;;4.72;4.32;;;;;;;30.29;43.12;153666.47;5133123;27;20680;-65
2022/10/09 11:18:54;;;;;;;4.60;4.40;;;;;;;29.82;45.28;153545.94;5133321;27;20228;-66
2022/10/09 11:21:45;;;;;;;4.82;4.45;;;;;;;29.33;45.77;153422.94;5132557;27;20249;-65
2022/10/09 11:24:27;;;;;;;5.00;4.50;;;;;;;28.75;47.92;153275.63;5132696;28;20243;-65